KCCY/CCY METAR and TAF weather

Enter ICAO airport designator
Station Type Date Time Source
KCCY METAR 2019/06/20 07:55 UTC NOAA

KCCY 200755Z AUTO 17004KT 10SM FEW029 SCT150 16/15 A2974 RMK AO2


Station Type Date Time Source
KCCY Decoded METAR 2019/06/20 07:55 UTC NOAA

Charles City, IA, United States (KCCY) 43-04N 092-37W
Jun 20, 2019 - 03:55 AM EDT / 2019.06.20 0755 UTC
Wind: from the S (170 degrees) at 5 MPH (4 KT):0
Visibility: 10 mile(s):0
Sky conditions: partly cloudy
Temperature: 60 F (16 C)
Dew Point: 59 F (15 C)
Relative Humidity: 93%
Pressure (altimeter): 29.74 in. Hg (1007 hPa)
ob: KCCY 200755Z AUTO 17004KT 10SM FEW029 SCT150 16/15 A2974 RMK AO2
cycle: 8

Station Type Date Time Source
KCCY TAF UTC NOAA

Error!

Example: see airport list